Time;durP1;ratioP1;P1;durP2;ratioP2;P2;SDS_P1;SDS_P2;PMS_P1;PMS_P2;Temp;Humidity;BMP_temperature;BMP_pressure;BME280_temperature;BME280_humidity;BME280_pressure;Samples;Min_cycle;Max_cycle;Signal;HPM_P1;HPM_P2
2022/04/07 00:00:05;;;;;;;16.40;14.68;;;;;;;;;;4957263;28;20069;-76
2022/04/07 00:02:34;;;;;;;20.35;15.55;;;;;;;;;;4958678;28;20051;-75
2022/04/07 00:05:03;;;;;;;16.48;14.23;;;;;;;;;;4959580;28;20043;-74
2022/04/07 00:07:34;;;;;;;17.25;14.18;;;;;;;;;;4958723;28;20135;-74
2022/04/07 00:10:03;;;;;;;17.08;15.32;;;;;;;;;;4959493;28;20142;-74
2022/04/07 00:12:34;;;;;;;18.55;15.75;;;;;;;;;;4959211;28;20499;-74
2022/04/07 00:15:04;;;;;;;19.48;16.75;;;;;;;;;;4959060;28;20059;-74
2022/04/07 00:17:33;;;;;;;17.10;14.52;;;;;;;;;;4959501;28;20051;-74
2022/04/07 00:20:05;;;;;;;17.52;15.65;;;;;;;;;;4959045;28;20454;-74
2022/04/07 00:22:34;;;;;;;18.20;16.00;;;;;;;;;;4959231;28;20063;-74
2022/04/07 00:25:04;;;;;;;16.73;15.02;;;;;;;;;;4957758;29;20051;-74
2022/04/07 00:27:33;;;;;;;25.58;16.17;;;;;;;;;;4959445;28;20043;-74
2022/04/07 00:30:03;;;;;;;17.95;14.30;;;;;;;;;;4958238;28;20050;-73
2022/04/07 00:32:31;;;;;;;18.38;16.48;;;;;;;;;;4958786;28;20486;-73
2022/04/07 00:34:59;;;;;;;14.93;13.63;;;;;;;;;;4958307;28;20048;-74
2022/04/07 00:37:28;;;;;;;17.00;13.65;;;;;;;;;;4958585;28;20115;-73
2022/04/07 00:39:59;;;;;;;13.90;12.70;;;;;;;;;;4954362;28;20504;-73
2022/04/07 00:42:29;;;;;;;14.25;12.85;;;;;;;;;;4939104;28;20060;-73
2022/04/07 00:44:57;;;;;;;22.15;14.20;;;;;;;;;;4939544;29;20134;-75
2022/04/07 00:47:27;;;;;;;16.42;14.75;;;;;;;;;;4939050;29;20051;-75
2022/04/07 00:49:55;;;;;;;15.05;13.52;;;;;;;;;;4952790;29;20077;-81
2022/04/07 00:52:24;;;;;;;17.23;14.18;;;;;;;;;;4959692;28;20142;-82
2022/04/07 00:54:52;;;;;;;16.42;14.73;;;;;;;;;;4957645;28;20134;-82
2022/04/07 00:57:20;;;;;;;16.73;15.02;;;;;;;;;;4959825;28;20415;-81
2022/04/07 00:59:49;;;;;;;18.08;15.55;;;;;;;;;;4959241;28;20055;-82
2022/04/07 01:02:17;;;;;;;18.10;16.25;;;;;;;;;;4941310;28;20052;-82
2022/04/07 01:04:46;;;;;;;16.98;15.27;;;;;;;;;;4940115;29;20095;-81
2022/04/07 01:07:15;;;;;;;17.13;15.25;;;;;;;;;;4938325;29;20055;-82
2022/04/07 01:09:44;;;;;;;17.85;15.73;;;;;;;;;;4939077;28;20114;-81
2022/04/07 01:12:13;;;;;;;20.05;16.20;;;;;;;;;;4940310;29;20059;-79
2022/04/07 01:14:57;;;;;;;17.63;15.77;;;;;;;;;;4940150;29;20052;-79
2022/04/07 01:17:26;;;;;;;20.25;15.85;;;;;;;;;;4940600;29;20047;-79
2022/04/07 01:19:55;;;;;;;20.05;17.95;;;;;;;;;;4939009;29;20563;-78
2022/04/07 01:22:23;;;;;;;17.45;15.43;;;;;;;;;;4939304;29;20134;-78
2022/04/07 01:24:52;;;;;;;16.58;14.88;;;;;;;;;;4939527;29;20051;-79
2022/04/07 01:27:24;;;;;;;19.85;16.27;;;;;;;;;;4939416;28;20075;-79
2022/04/07 01:29:53;;;;;;;19.35;17.38;;;;;;;;;;4939391;28;20071;-78
2022/04/07 01:32:33;;;;;;;17.30;15.65;;;;;;;;;;4939095;29;20055;-80
2022/04/07 01:35:04;;;;;;;19.90;15.13;;;;;;;;;;4938925;29;20126;-80
2022/04/07 01:37:34;;;;;;;18.25;15.13;;;;;;;;;;4953457;29;20134;-76
2022/04/07 01:40:03;;;;;;;20.55;17.13;;;;;;;;;;4957280;29;20079;-77
2022/04/07 01:42:34;;;;;;;18.88;16.98;;;;;;;;;;4946188;28;20106;-77
2022/04/07 01:45:04;;;;;;;19.40;16.50;;;;;;;;;;4957869;28;20066;-77
2022/04/07 01:47:35;;;;;;;18.92;16.95;;;;;;;;;;4957732;28;20392;-77
2022/04/07 01:50:08;;;;;;;19.20;17.20;;;;;;;;;;4957580;28;20094;-77
2022/04/07 01:52:39;;;;;;;19.92;18.02;;;;;;;;;;4957251;28;20455;-76
2022/04/07 01:55:08;;;;;;;18.90;17.00;;;;;;;;;;4957167;28;20047;-76
2022/04/07 01:57:38;;;;;;;17.08;15.35;;;;;;;;;;4939735;29;20047;-75
2022/04/07 02:00:08;;;;;;;16.02;14.40;;;;;;;;;;4957223;28;20059;-76
2022/04/07 02:02:41;;;;;;;17.80;15.63;;;;;;;;;;4954295;28;20055;-77
2022/04/07 02:05:11;;;;;;;17.77;15.88;;;;;;;;;;4948624;29;20542;-77
2022/04/07 02:07:42;;;;;;;18.38;15.40;;;;;;;;;;4957371;28;20423;-77
2022/04/07 02:10:13;;;;;;;17.65;16.05;;;;;;;;;;4957205;28;20078;-77
2022/04/07 02:12:43;;;;;;;18.02;16.15;;;;;;;;;;4957707;28;20084;-77
2022/04/07 02:15:12;;;;;;;17.48;15.70;;;;;;;;;;4957279;28;20055;-77
2022/04/07 02:17:40;;;;;;;18.05;16.15;;;;;;;;;;4938730;28;20083;-77
2022/04/07 02:20:09;;;;;;;19.60;17.50;;;;;;;;;;4937816;29;20075;-79
2022/04/07 02:22:39;;;;;;;19.75;17.75;;;;;;;;;;4939815;29;20086;-75
2022/04/07 02:25:10;;;;;;;35.35;20.17;;;;;;;;;;4956436;28;20396;-74
2022/04/07 02:27:40;;;;;;;23.38;19.60;;;;;;;;;;4956999;28;20066;-75
2022/04/07 02:30:12;;;;;;;22.92;17.45;;;;;;;;;;4940220;28;20051;-75
2022/04/07 02:32:41;;;;;;;19.70;17.02;;;;;;;;;;4937949;29;20397;-75
2022/04/07 02:35:11;;;;;;;17.77;16.05;;;;;;;;;;4955332;28;20055;-74
2022/04/07 02:37:42;;;;;;;19.98;16.45;;;;;;;;;;4942597;28;20052;-75
2022/04/07 02:40:11;;;;;;;19.95;16.73;;;;;;;;;;4937500;29;20099;-74
2022/04/07 02:42:39;;;;;;;19.15;16.15;;;;;;;;;;4936102;29;20052;-74
2022/04/07 02:45:09;;;;;;;16.63;14.95;;;;;;;;;;4937702;29;20514;-74
2022/04/07 02:47:38;;;;;;;23.08;16.67;;;;;;;;;;4937513;28;20047;-75
2022/04/07 02:50:07;;;;;;;17.60;15.75;;;;;;;;;;4920626;29;20059;-75
2022/04/07 02:52:35;;;;;;;19.85;16.80;;;;;;;;;;4937175;28;20051;-74
2022/04/07 02:55:03;;;;;;;15.05;13.50;;;;;;;;;;4937829;28;20050;-77
2022/04/07 02:57:32;;;;;;;19.98;15.85;;;;;;;;;;4951548;29;20102;-76
2022/04/07 03:00:01;;;;;;;15.20;11.85;;;;;;;;;;4942140;28;20407;-76
2022/04/07 03:02:30;;;;;;;16.30;10.88;;;;;;;;;;4937465;28;20058;-76
2022/04/07 03:04:58;;;;;;;13.55;11.15;;;;;;;;;;4937331;29;20051;-76
2022/04/07 03:07:28;;;;;;;14.40;10.80;;;;;;;;;;4936130;29;20071;-76
2022/04/07 03:09:58;;;;;;;11.07;9.98;;;;;;;;;;4937597;28;20060;-76
2022/04/07 03:12:27;;;;;;;11.63;10.13;;;;;;;;;;4936744;29;20504;-76
2022/04/07 03:14:55;;;;;;;15.20;10.57;;;;;;;;;;4937892;28;20087;-76
2022/04/07 03:17:23;;;;;;;14.95;11.23;;;;;;;;;;4936888;29;20051;-76
2022/04/07 03:19:54;;;;;;;10.93;9.82;;;;;;;;;;4937218;29;20090;-76
2022/04/07 03:22:25;;;;;;;13.32;9.27;;;;;;;;;;4937408;28;20134;-76
2022/04/07 03:24:55;;;;;;;10.60;9.20;;;;;;;;;;4937080;28;20044;-75
2022/04/07 03:27:23;;;;;;;10.93;8.98;;;;;;;;;;4937560;28;20055;-76
2022/04/07 03:29:51;;;;;;;12.98;10.80;;;;;;;;;;4936678;28;20442;-75
2022/04/07 03:32:20;;;;;;;10.50;9.43;;;;;;;;;;4944129;29;20051;-75
2022/04/07 03:34:47;;;;;;;11.23;8.90;;;;;;;;;;4956787;28;20054;-75
2022/04/07 03:37:15;;;;;;;12.48;8.80;;;;;;;;;;4959333;28;20529;-75
2022/04/07 03:39:43;;;;;;;10.75;9.45;;;;;;;;;;4942764;28;20043;-74
2022/04/07 03:42:11;;;;;;;12.60;10.45;;;;;;;;;;4940213;29;20093;-74
2022/04/07 03:44:39;;;;;;;14.00;12.27;;;;;;;;;;4940526;28;20052;-74
2022/04/07 03:47:08;;;;;;;14.63;11.40;;;;;;;;;;4940179;29;20051;-74
2022/04/07 03:49:36;;;;;;;12.38;11.07;;;;;;;;;;4940346;28;20048;-74
2022/04/07 03:52:08;;;;;;;15.57;11.48;;;;;;;;;;4939870;29;20052;-74
2022/04/07 03:54:36;;;;;;;16.73;12.48;;;;;;;;;;4940508;28;20066;-74
2022/04/07 03:57:05;;;;;;;15.63;12.95;;;;;;;;;;4940148;28;20488;-74
2022/04/07 03:59:38;;;;;;;15.45;12.07;;;;;;;;;;4956459;29;20063;-75
2022/04/07 04:02:07;;;;;;;17.13;12.35;;;;;;;;;;4956518;28;20058;-74
2022/04/07 04:04:37;;;;;;;12.60;11.30;;;;;;;;;;4940064;29;20079;-74
2022/04/07 04:07:06;;;;;;;13.32;11.57;;;;;;;;;;4940850;29;20127;-75
2022/04/07 04:09:35;;;;;;;12.85;11.55;;;;;;;;;;4940660;28;20052;-75
2022/04/07 04:12:07;;;;;;;12.90;11.60;;;;;;;;;;4940356;29;20044;-75
2022/04/07 04:14:34;;;;;;;13.63;12.30;;;;;;;;;;4940357;28;20060;-75
2022/04/07 04:17:03;;;;;;;15.60;13.98;;;;;;;;;;4940836;28;20095;-75
2022/04/07 04:19:33;;;;;;;15.05;12.00;;;;;;;;;;4939926;29;20051;-74
2022/04/07 04:22:03;;;;;;;17.02;13.73;;;;;;;;;;4939878;28;20118;-75
2022/04/07 04:24:33;;;;;;;17.40;13.88;;;;;;;;;;4940640;28;20051;-75
2022/04/07 04:27:03;;;;;;;18.08;13.52;;;;;;;;;;4940301;29;20060;-75
2022/04/07 04:29:33;;;;;;;18.85;12.95;;;;;;;;;;4940228;28;20058;-75
2022/04/07 04:32:02;;;;;;;19.90;14.00;;;;;;;;;;4939774;29;20131;-75
2022/04/07 04:34:35;;;;;;;15.32;13.02;;;;;;;;;;4939635;29;20508;-75
2022/04/07 04:37:03;;;;;;;14.70;12.90;;;;;;;;;;4939100;28;20055;-75
2022/04/07 04:39:37;;;;;;;15.93;13.15;;;;;;;;;;4952073;29;20047;-75
2022/04/07 04:42:06;;;;;;;14.07;12.57;;;;;;;;;;4948106;29;20047;-75
2022/04/07 04:44:36;;;;;;;18.48;15.02;;;;;;;;;;4939860;28;20054;-75
2022/04/07 04:47:04;;;;;;;16.30;13.90;;;;;;;;;;4947977;29;20075;-76
2022/04/07 04:49:32;;;;;;;16.55;14.82;;;;;;;;;;4958710;28;20051;-76
2022/04/07 04:52:01;;;;;;;16.25;14.13;;;;;;;;;;4958218;28;20519;-75
2022/04/07 04:54:29;;;;;;;15.60;13.15;;;;;;;;;;4952235;28;20062;-78
2022/04/07 04:56:58;;;;;;;15.15;13.15;;;;;;;;;;4959133;28;20138;-78
2022/04/07 04:59:28;;;;;;;13.63;12.18;;;;;;;;;;4957769;28;20136;-74
2022/04/07 05:01:56;;;;;;;16.27;12.85;;;;;;;;;;4957707;28;20470;-74
2022/04/07 05:04:24;;;;;;;14.63;12.90;;;;;;;;;;4956682;29;20133;-74
2022/04/07 05:06:53;;;;;;;12.07;10.88;;;;;;;;;;4957650;28;20082;-74
2022/04/07 05:09:21;;;;;;;14.40;11.00;;;;;;;;;;4944900;28;20054;-75
2022/04/07 05:11:49;;;;;;;11.50;10.35;;;;;;;;;;4959788;28;20055;-76
2022/04/07 05:14:17;;;;;;;13.57;11.27;;;;;;;;;;4958359;28;20117;-78
2022/04/07 05:16:53;;;;;;;13.18;11.70;;;;;;;;;;4944030;29;20056;-74
2022/04/07 05:19:22;;;;;;;12.27;10.98;;;;;;;;;;4951093;28;20133;-73
2022/04/07 05:21:51;;;;;;;13.27;11.98;;;;;;;;;;4950763;28;20061;-74
2022/04/07 05:24:20;;;;;;;12.30;11.05;;;;;;;;;;4948879;28;20467;-73
2022/04/07 05:26:49;;;;;;;17.27;12.60;;;;;;;;;;4956512;28;20055;-72
2022/04/07 05:29:19;;;;;;;16.83;13.23;;;;;;;;;;4956816;28;20422;-74
2022/04/07 05:31:47;;;;;;;15.85;12.13;;;;;;;;;;4956549;28;20047;-73
2022/04/07 05:34:16;;;;;;;16.00;12.63;;;;;;;;;;4956891;28;20070;-73
2022/04/07 05:36:44;;;;;;;15.10;13.50;;;;;;;;;;4955868;28;20063;-73
2022/04/07 05:39:13;;;;;;;19.13;13.80;;;;;;;;;;4956453;28;20089;-73
2022/04/07 05:41:45;;;;;;;17.85;14.93;;;;;;;;;;4956043;28;20170;-73
2022/04/07 05:44:14;;;;;;;15.13;13.52;;;;;;;;;;4949261;29;20048;-68
2022/04/07 05:46:42;;;;;;;15.77;14.05;;;;;;;;;;4955174;28;20090;-68
2022/04/07 05:49:13;;;;;;;15.70;13.85;;;;;;;;;;4941010;28;20043;-68
2022/04/07 05:51:41;;;;;;;20.52;15.73;;;;;;;;;;4939892;29;20418;-68
2022/04/07 05:54:10;;;;;;;20.48;14.98;;;;;;;;;;4948466;28;20607;-67
2022/04/07 05:56:39;;;;;;;15.30;13.20;;;;;;;;;;4944501;29;20106;-67
2022/04/07 05:59:08;;;;;;;16.10;14.18;;;;;;;;;;4943515;28;20059;-67
2022/04/07 06:01:38;;;;;;;20.08;16.10;;;;;;;;;;4935936;29;20055;-67
2022/04/07 06:04:07;;;;;;;29.23;16.10;;;;;;;;;;4935275;29;20055;-67
2022/04/07 06:06:36;;;;;;;20.15;14.10;;;;;;;;;;4936191;29;20047;-67
2022/04/07 06:09:05;;;;;;;17.77;15.43;;;;;;;;;;4936824;29;20048;-66
2022/04/07 06:11:34;;;;;;;26.67;15.50;;;;;;;;;;4935997;29;20586;-67
2022/04/07 06:14:02;;;;;;;20.38;13.98;;;;;;;;;;4955591;29;20043;-67
2022/04/07 06:16:32;;;;;;;15.85;13.77;;;;;;;;;;4955712;28;20483;-67
2022/04/07 06:19:01;;;;;;;20.30;14.95;;;;;;;;;;4955848;28;20126;-67
2022/04/07 06:21:33;;;;;;;22.90;14.75;;;;;;;;;;4938427;28;20047;-67
2022/04/07 06:24:01;;;;;;;18.15;13.80;;;;;;;;;;4938144;29;20058;-67
2022/04/07 06:26:31;;;;;;;19.98;13.98;;;;;;;;;;4935735;29;20583;-67
2022/04/07 06:29:01;;;;;;;18.15;13.63;;;;;;;;;;4937310;29;20075;-67
2022/04/07 06:31:29;;;;;;;20.98;14.93;;;;;;;;;;4936648;29;20048;-67
2022/04/07 06:34:01;;;;;;;24.30;14.27;;;;;;;;;;4937064;29;20056;-67
2022/04/07 06:36:35;;;;;;;19.35;14.65;;;;;;;;;;4937351;28;20147;-67
2022/04/07 06:39:03;;;;;;;18.48;15.30;;;;;;;;;;4936733;29;20110;-67
2022/04/07 06:41:32;;;;;;;19.55;14.85;;;;;;;;;;4946401;28;20055;-67
2022/04/07 06:44:00;;;;;;;18.10;13.52;;;;;;;;;;4955321;28;20459;-67
2022/04/07 06:46:28;;;;;;;14.90;12.48;;;;;;;;;;4954708;28;20055;-67
2022/04/07 06:48:58;;;;;;;19.08;12.88;;;;;;;;;;4954697;28;20047;-66
2022/04/07 06:51:27;;;;;;;15.85;12.20;;;;;;;;;;4936818;28;20056;-66
2022/04/07 06:53:56;;;;;;;14.07;10.77;;;;;;;;;;4936589;29;20099;-67
2022/04/07 06:56:24;;;;;;;14.68;10.73;;;;;;;;;;4936415;29;20062;-66
2022/04/07 06:58:57;;;;;;;12.27;10.98;;;;;;;;;;4935863;29;20070;-66
2022/04/07 07:01:25;;;;;;;12.10;10.05;;;;;;;;;;4936830;29;20091;-66
2022/04/07 07:03:54;;;;;;;11.35;8.50;;;;;;;;;;4935324;29;20062;-67
2022/04/07 07:06:23;;;;;;;7.55;6.53;;;;;;;;;;4935569;29;20102;-66
2022/04/07 07:08:53;;;;;;;8.23;5.75;;;;;;;;;;4936503;29;20043;-66
2022/04/07 07:11:22;;;;;;;13.30;6.70;;;;;;;;;;4935661;29;20073;-66
2022/04/07 07:13:51;;;;;;;8.50;6.25;;;;;;;;;;4936357;29;20531;-66
2022/04/07 07:16:19;;;;;;;7.40;5.97;;;;;;;;;;4936237;29;20070;-67
2022/04/07 07:18:47;;;;;;;7.53;6.63;;;;;;;;;;4937723;29;20058;-66
2022/04/07 07:21:16;;;;;;;8.18;6.32;;;;;;;;;;4952353;28;20047;-66
2022/04/07 07:23:45;;;;;;;7.97;6.20;;;;;;;;;;4934957;29;20058;-66
2022/04/07 07:26:13;;;;;;;6.03;5.28;;;;;;;;;;4936057;29;20139;-65
2022/04/07 07:28:41;;;;;;;8.98;6.22;;;;;;;;;;4936407;28;20043;-66
2022/04/07 07:31:10;;;;;;;6.72;6.03;;;;;;;;;;4936149;28;20511;-66
2022/04/07 07:33:38;;;;;;;8.75;5.65;;;;;;;;;;4936642;28;20571;-66
2022/04/07 07:36:07;;;;;;;7.70;6.50;;;;;;;;;;4936260;29;20059;-66
2022/04/07 07:38:34;;;;;;;7.78;5.68;;;;;;;;;;4950505;28;20058;-67
2022/04/07 07:41:03;;;;;;;7.28;6.32;;;;;;;;;;4935082;29;20551;-67
2022/04/07 07:43:31;;;;;;;7.28;5.72;;;;;;;;;;4940736;29;20129;-64
2022/04/07 07:45:59;;;;;;;8.10;5.68;;;;;;;;;;4946587;29;20069;-64
2022/04/07 07:48:29;;;;;;;8.70;6.50;;;;;;;;;;4953736;28;20138;-65
2022/04/07 07:50:57;;;;;;;5.97;5.47;;;;;;;;;;4943856;28;20102;-64
2022/04/07 07:53:25;;;;;;;5.45;4.95;;;;;;;;;;4940241;28;20431;-65
2022/04/07 07:55:54;;;;;;;5.40;4.90;;;;;;;;;;4936521;29;20455;-65
2022/04/07 07:58:25;;;;;;;4.97;4.15;;;;;;;;;;4938806;29;20567;-65
2022/04/07 08:00:54;;;;;;;6.10;4.53;;;;;;;;;;4937845;29;20078;-64
2022/04/07 08:03:24;;;;;;;6.18;4.28;;;;;;;;;;4935867;29;20526;-65
2022/04/07 08:05:54;;;;;;;7.57;5.57;;;;;;;;;;4942436;28;20048;-65
2022/04/07 08:08:26;;;;;;;7.57;5.50;;;;;;;;;;4953367;28;20122;-65
2022/04/07 08:10:55;;;;;;;6.70;5.32;;;;;;;;;;4954786;28;20099;-65
2022/04/07 08:13:23;;;;;;;5.70;4.80;;;;;;;;;;4945736;28;20052;-65
2022/04/07 08:15:52;;;;;;;9.63;6.07;;;;;;;;;;4937619;28;20058;-65
2022/04/07 08:18:20;;;;;;;8.23;6.70;;;;;;;;;;4932459;29;20052;-65
2022/04/07 08:20:49;;;;;;;7.40;5.63;;;;;;;;;;4954950;28;20039;-65
2022/04/07 08:23:18;;;;;;;11.90;6.75;;;;;;;;;;4957909;28;20063;-65
2022/04/07 08:25:49;;;;;;;9.50;6.30;;;;;;;;;;4956064;29;20558;-66
2022/04/07 08:28:17;;;;;;;9.00;6.38;;;;;;;;;;4957803;28;20049;-65
2022/04/07 08:30:46;;;;;;;16.52;8.48;;;;;;;;;;4957592;28;20132;-64
2022/04/07 08:33:15;;;;;;;9.25;7.88;;;;;;;;;;4951666;28;20059;-63
2022/04/07 08:35:44;;;;;;;9.52;7.05;;;;;;;;;;4949242;28;20081;-65
2022/04/07 08:38:15;;;;;;;10.27;7.00;;;;;;;;;;4957406;28;20055;-67
2022/04/07 08:40:44;;;;;;;17.42;9.35;;;;;;;;;;4949075;28;20138;-67
2022/04/07 08:43:13;;;;;;;9.73;8.40;;;;;;;;;;4938981;29;20067;-68
2022/04/07 08:45:43;;;;;;;13.88;8.13;;;;;;;;;;4939441;28;20058;-66
2022/04/07 08:48:12;;;;;;;12.75;7.95;;;;;;;;;;4954907;29;20105;-67
2022/04/07 08:50:41;;;;;;;15.00;8.63;;;;;;;;;;4944664;28;20055;-67
2022/04/07 08:53:11;;;;;;;13.13;9.02;;;;;;;;;;4944302;28;20051;-67
2022/04/07 08:55:40;;;;;;;9.73;8.57;;;;;;;;;;4942135;29;20102;-67
2022/04/07 08:58:10;;;;;;;20.75;10.27;;;;;;;;;;4956944;28;20039;-67
2022/04/07 09:00:39;;;;;;;13.32;8.77;;;;;;;;;;4956930;28;20446;-67
2022/04/07 09:03:07;;;;;;;13.93;8.95;;;;;;;;;;4944252;28;20052;-67
2022/04/07 09:05:55;;;;;;;35.78;9.98;;;;;;;;;;4938240;29;20483;-67
2022/04/07 09:08:37;;;;;;;18.55;8.70;;;;;;;;;;4938087;29;20411;-67
2022/04/07 09:11:08;;;;;;;9.82;7.55;;;;;;;;;;4939995;28;20537;-67
2022/04/07 09:13:42;;;;;;;13.00;9.38;;;;;;;;;;4935566;28;20055;-67
2022/04/07 09:16:13;;;;;;;14.02;9.05;;;;;;;;;;4937867;29;20079;-67
2022/04/07 09:18:45;;;;;;;15.82;9.30;;;;;;;;;;4937828;29;20567;-67
2022/04/07 09:21:24;;;;;;;11.93;8.95;;;;;;;;;;4939395;29;20501;-67
2022/04/07 09:23:58;;;;;;;13.20;10.57;;;;;;;;;;4945122;29;20063;-67
2022/04/07 09:26:29;;;;;;;13.43;8.95;;;;;;;;;;4947241;29;20049;-68
2022/04/07 09:28:57;;;;;;;12.60;8.27;;;;;;;;;;4936829;29;20043;-67
2022/04/07 09:31:26;;;;;;;13.20;8.95;;;;;;;;;;4938414;29;20048;-67
2022/04/07 09:34:01;;;;;;;15.65;8.65;;;;;;;;;;4950318;29;20079;-67
2022/04/07 09:36:30;;;;;;;15.35;8.38;;;;;;;;;;4945222;29;20526;-69
2022/04/07 09:39:00;;;;;;;21.75;9.52;;;;;;;;;;4940376;28;20083;-68
2022/04/07 09:41:31;;;;;;;11.27;6.82;;;;;;;;;;4955196;28;20051;-68
2022/04/07 09:44:01;;;;;;;15.07;7.50;;;;;;;;;;4943214;28;20448;-69
2022/04/07 09:46:38;;;;;;;10.48;7.40;;;;;;;;;;4937965;29;20050;-68
2022/04/07 09:49:12;;;;;;;11.70;6.70;;;;;;;;;;4937922;29;20127;-68
2022/04/07 09:51:43;;;;;;;11.00;5.75;;;;;;;;;;4936273;29;20058;-68
2022/04/07 09:54:14;;;;;;;11.50;6.35;;;;;;;;;;4921484;29;20504;-68
2022/04/07 09:56:45;;;;;;;14.30;7.97;;;;;;;;;;4937583;28;20043;-70
2022/04/07 09:59:19;;;;;;;11.98;6.68;;;;;;;;;;4940165;29;20055;-69
2022/04/07 10:01:50;;;;;;;12.77;6.32;;;;;;;;;;4946911;28;20059;-67
2022/04/07 10:04:21;;;;;;;7.55;6.00;;;;;;;;;;4953274;28;20047;-68
2022/04/07 10:06:53;;;;;;;9.70;6.13;;;;;;;;;;4955032;28;20534;-67
2022/04/07 10:09:21;;;;;;;9.95;7.18;;;;;;;;;;4954713;28;20066;-67
2022/04/07 10:11:50;;;;;;;10.30;6.70;;;;;;;;;;4938413;29;20055;-67
2022/04/07 10:14:21;;;;;;;12.40;7.13;;;;;;;;;;4948134;28;20559;-67
2022/04/07 10:16:51;;;;;;;8.18;7.00;;;;;;;;;;4937400;29;20076;-67
2022/04/07 10:19:43;;;;;;;11.15;7.60;;;;;;;;;;4937118;28;20064;-67
2022/04/07 10:22:47;;;;;;;15.05;9.27;;;;;;;;;;4942190;29;20047;-68
2022/04/07 10:25:15;;;;;;;8.27;7.07;;;;;;;;;;4955624;28;20055;-67
2022/04/07 10:27:52;;;;;;;11.98;8.55;;;;;;;;;;4954538;29;20061;-66
2022/04/07 10:30:21;;;;;;;9.25;7.05;;;;;;;;;;4955477;28;20054;-67
2022/04/07 10:32:56;;;;;;;10.73;7.32;;;;;;;;;;4955018;28;20135;-66
2022/04/07 10:35:36;;;;;;;13.48;8.07;;;;;;;;;;4955545;28;20138;-66
2022/04/07 10:38:09;;;;;;;10.88;8.35;;;;;;;;;;4955893;28;20443;-67
2022/04/07 10:40:49;;;;;;;10.98;7.60;;;;;;;;;;4955174;28;20055;-67
2022/04/07 10:43:27;;;;;;;11.80;7.65;;;;;;;;;;4954483;28;20054;-66
2022/04/07 10:46:01;;;;;;;17.52;8.02;;;;;;;;;;4954425;28;20055;-67
2022/04/07 10:48:30;;;;;;;15.77;10.07;;;;;;;;;;4937640;29;20052;-67
2022/04/07 10:50:59;;;;;;;11.73;8.73;;;;;;;;;;4936546;29;20134;-66
2022/04/07 10:53:37;;;;;;;11.05;9.48;;;;;;;;;;4936696;28;20066;-67
2022/04/07 10:56:24;;;;;;;10.02;8.98;;;;;;;;;;4942970;29;20110;-67
2022/04/07 10:58:56;;;;;;;11.85;9.23;;;;;;;;;;4949994;29;20067;-67
2022/04/07 11:01:41;;;;;;;12.38;9.07;;;;;;;;;;4946363;29;20095;-67
2022/04/07 11:04:19;;;;;;;10.80;9.35;;;;;;;;;;4936489;28;20051;-67
2022/04/07 11:07:05;;;;;;;11.55;8.52;;;;;;;;;;4936543;28;20055;-67
2022/04/07 11:09:50;;;;;;;10.90;9.35;;;;;;;;;;4945203;29;20134;-66
2022/04/07 11:12:34;;;;;;;14.15;9.65;;;;;;;;;;4959345;28;20082;-67
2022/04/07 11:15:02;;;;;;;11.55;9.65;;;;;;;;;;4936204;29;20044;-67
2022/04/07 11:17:45;;;;;;;10.18;9.15;;;;;;;;;;4936373;28;20056;-67
2022/04/07 11:20:22;;;;;;;12.32;9.45;;;;;;;;;;4938671;28;20052;-67
2022/04/07 11:23:06;;;;;;;11.77;10.35;;;;;;;;;;4954330;29;20066;-67
2022/04/07 11:25:42;;;;;;;15.63;10.43;;;;;;;;;;4949496;28;20059;-67
2022/04/07 11:28:24;;;;;;;14.40;10.95;;;;;;;;;;4954783;28;20055;-67
2022/04/07 11:31:00;;;;;;;14.68;10.30;;;;;;;;;;4941126;28;20055;-67
2022/04/07 11:33:28;;;;;;;12.65;10.93;;;;;;;;;;4936773;29;20052;-67
2022/04/07 11:35:59;;;;;;;12.65;11.25;;;;;;;;;;4936145;28;20062;-67
2022/04/07 11:38:35;;;;;;;21.42;11.13;;;;;;;;;;4936618;29;20138;-67
2022/04/07 11:41:09;;;;;;;17.55;10.23;;;;;;;;;;4936319;29;20051;-67
2022/04/07 11:43:41;;;;;;;17.83;11.18;;;;;;;;;;4951129;28;20151;-68
2022/04/07 11:46:09;;;;;;;17.08;11.40;;;;;;;;;;4937775;28;20059;-68
2022/04/07 11:48:58;;;;;;;14.23;10.73;;;;;;;;;;4954963;29;20058;-68
2022/04/07 11:51:28;;;;;;;15.88;10.02;;;;;;;;;;4943871;28;20051;-68
2022/04/07 11:53:57;;;;;;;15.77;11.60;;;;;;;;;;4935415;29;20150;-69
2022/04/07 11:56:31;;;;;;;18.55;11.63;;;;;;;;;;4951427;29;20475;-68
2022/04/07 11:59:00;;;;;;;16.35;9.95;;;;;;;;;;4952256;28;20084;-68
2022/04/07 12:01:32;;;;;;;14.43;9.48;;;;;;;;;;4939617;29;20051;-68
2022/04/07 12:04:03;;;;;;;12.32;9.63;;;;;;;;;;4938687;29;20081;-67
2022/04/07 12:06:46;;;;;;;13.18;11.18;;;;;;;;;;4942085;29;20052;-67
2022/04/07 12:09:30;;;;;;;13.55;10.40;;;;;;;;;;4943523;28;20048;-66
2022/04/07 12:11:59;;;;;;;14.57;10.23;;;;;;;;;;4941604;28;20056;-66
2022/04/07 12:14:27;;;;;;;14.10;9.75;;;;;;;;;;4940286;28;20388;-66
2022/04/07 12:16:55;;;;;;;11.70;10.43;;;;;;;;;;4939332;29;20051;-66
2022/04/07 12:19:24;;;;;;;12.20;9.63;;;;;;;;;;4941727;28;20051;-66
2022/04/07 12:21:57;;;;;;;13.95;10.20;;;;;;;;;;4957970;28;20411;-66
2022/04/07 12:24:27;;;;;;;11.07;9.70;;;;;;;;;;4957628;28;20086;-67
2022/04/07 12:26:59;;;;;;;12.60;10.40;;;;;;;;;;4954779;29;20051;-66
2022/04/07 12:29:34;;;;;;;11.63;9.75;;;;;;;;;;4954538;29;20059;-66
2022/04/07 12:32:06;;;;;;;12.85;10.50;;;;;;;;;;4957101;28;20082;-66
2022/04/07 12:34:50;;;;;;;17.33;10.57;;;;;;;;;;4957733;28;20097;-66
2022/04/07 12:37:43;;;;;;;18.00;11.02;;;;;;;;;;4957405;28;20047;-66
2022/04/07 12:40:25;;;;;;;18.67;11.40;;;;;;;;;;4957711;28;20066;-66
2022/04/07 12:42:56;;;;;;;18.80;11.20;;;;;;;;;;4953449;28;20078;-66
2022/04/07 12:45:30;;;;;;;14.82;9.50;;;;;;;;;;4939056;29;20495;-66
2022/04/07 12:48:18;;;;;;;16.30;11.32;;;;;;;;;;4938895;28;20060;-66
2022/04/07 12:50:56;;;;;;;15.98;10.38;;;;;;;;;;4938788;29;20055;-66
2022/04/07 12:53:29;;;;;;;21.25;11.73;;;;;;;;;;4938704;29;20090;-66
2022/04/07 12:56:02;;;;;;;19.15;10.35;;;;;;;;;;4938662;29;20075;-67
2022/04/07 12:58:34;;;;;;;16.15;10.60;;;;;;;;;;4941733;28;20533;-66
2022/04/07 13:01:02;;;;;;;15.32;10.32;;;;;;;;;;4956915;28;20051;-67
2022/04/07 13:03:32;;;;;;;15.63;9.55;;;;;;;;;;4943054;28;20059;-66
2022/04/07 13:06:03;;;;;;;15.95;10.52;;;;;;;;;;4939918;29;20103;-66
2022/04/07 13:08:32;;;;;;;16.27;10.43;;;;;;;;;;4956192;28;20047;-66
2022/04/07 13:11:02;;;;;;;15.07;10.70;;;;;;;;;;4950037;28;20047;-66
2022/04/07 13:13:31;;;;;;;17.42;10.95;;;;;;;;;;4947071;28;20107;-66
2022/04/07 13:15:59;;;;;;;17.05;12.40;;;;;;;;;;4945701;28;20528;-66
2022/04/07 13:18:28;;;;;;;13.35;11.48;;;;;;;;;;4955253;29;20514;-66
2022/04/07 13:20:56;;;;;;;15.20;12.13;;;;;;;;;;4951642;28;20055;-67
2022/04/07 13:23:26;;;;;;;21.48;13.93;;;;;;;;;;4956203;28;20055;-66
2022/04/07 13:25:54;;;;;;;14.88;12.30;;;;;;;;;;4945788;28;20051;-65
2022/04/07 13:28:22;;;;;;;17.25;13.48;;;;;;;;;;4941237;28;20043;-66
2022/04/07 13:30:52;;;;;;;14.60;12.10;;;;;;;;;;4951840;29;20547;-66
2022/04/07 13:33:22;;;;;;;20.42;13.00;;;;;;;;;;4947832;29;20067;-66
2022/04/07 13:35:51;;;;;;;16.35;12.88;;;;;;;;;;4938914;28;20138;-66
2022/04/07 13:38:21;;;;;;;20.02;13.77;;;;;;;;;;4936574;28;20048;-66
2022/04/07 13:40:53;;;;;;;;;;;;;;;;;;4938727;29;20125;-66
2022/04/07 13:43:21;;;;;;;18.73;13.55;;;;;;;;;;4951341;28;20013;-66
2022/04/07 13:45:52;;;;;;;19.13;13.00;;;;;;;;;;4937654;29;20054;-66
2022/04/07 13:48:25;;;;;;;20.90;13.02;;;;;;;;;;4937811;29;20051;-66
2022/04/07 13:50:53;;;;;;;15.43;13.45;;;;;;;;;;4937458;29;20448;-66
2022/04/07 13:53:23;;;;;;;18.17;14.45;;;;;;;;;;4937621;28;20059;-66
2022/04/07 13:55:52;;;;;;;25.60;14.82;;;;;;;;;;4937258;28;20547;-66
2022/04/07 13:58:21;;;;;;;18.20;14.32;;;;;;;;;;4937326;28;20059;-65
2022/04/07 14:00:51;;;;;;;19.77;14.00;;;;;;;;;;4948193;29;20058;-66
2022/04/07 14:03:23;;;;;;;16.65;14.65;;;;;;;;;;4955698;28;20047;-66
2022/04/07 14:05:54;;;;;;;19.35;15.02;;;;;;;;;;4955762;28;20047;-66
2022/04/07 14:08:24;;;;;;;20.42;15.20;;;;;;;;;;4955419;28;20051;-66
2022/04/07 14:10:52;;;;;;;18.90;15.45;;;;;;;;;;4939814;28;20055;-66
2022/04/07 14:13:23;;;;;;;19.98;15.35;;;;;;;;;;4940286;28;20079;-65
2022/04/07 14:15:53;;;;;;;22.05;16.88;;;;;;;;;;4937699;29;20059;-66
2022/04/07 14:18:23;;;;;;;20.15;15.52;;;;;;;;;;4939250;28;20040;-66
2022/04/07 14:20:53;;;;;;;19.20;15.48;;;;;;;;;;4951348;28;20109;-66
2022/04/07 14:23:21;;;;;;;20.33;18.00;;;;;;;;;;4955116;28;20051;-66
2022/04/07 14:25:50;;;;;;;19.60;15.32;;;;;;;;;;4951471;28;20047;-66
2022/04/07 14:28:20;;;;;;;21.70;16.00;;;;;;;;;;4938239;28;20059;-66
2022/04/07 14:30:50;;;;;;;23.20;17.25;;;;;;;;;;4937482;29;20510;-66
2022/04/07 14:33:22;;;;;;;22.83;18.10;;;;;;;;;;4941523;29;20056;-65
2022/04/07 14:35:51;;;;;;;24.42;16.98;;;;;;;;;;4940314;29;20055;-66
2022/04/07 14:38:20;;;;;;;18.63;16.70;;;;;;;;;;4938993;28;20469;-66
2022/04/07 14:40:48;;;;;;;25.73;17.80;;;;;;;;;;4949312;29;20054;-66
2022/04/07 14:43:17;;;;;;;19.77;15.50;;;;;;;;;;4945913;28;20515;-65